createdAt,value
2022-11-13T00:01:34.710Z,2.20
2022-11-13T00:04:30.303Z,1.60
2022-11-13T00:07:25.487Z,2.10
2022-11-13T00:10:21.098Z,2.10
2022-11-13T00:13:15.873Z,2.00
2022-11-13T00:16:18.148Z,2.30
2022-11-13T00:19:13.519Z,2.20
2022-11-13T00:22:08.289Z,3.00
2022-11-13T00:25:03.048Z,1.90
2022-11-13T00:27:58.209Z,3.20
2022-11-13T00:30:52.682Z,2.90
2022-11-13T00:34:19.477Z,3.10
2022-11-13T00:37:02.788Z,2.30
2022-11-13T00:39:59.741Z,1.90
2022-11-13T00:42:54.438Z,1.80
2022-11-13T00:45:48.905Z,1.80
2022-11-13T00:48:43.753Z,3.90
2022-11-13T00:51:37.629Z,3.60
2022-11-13T00:54:32.083Z,3.70
2022-11-13T00:57:27.393Z,2.30
2022-11-13T01:00:23.695Z,2.90
2022-11-13T01:03:19.935Z,3.30
2022-11-13T01:06:21.004Z,3.10
2022-11-13T01:09:17.721Z,2.50
2022-11-13T01:12:13.162Z,2.90
2022-11-13T01:15:09.165Z,3.50
2022-11-13T01:18:03.390Z,4.90
2022-11-13T01:21:04.673Z,3.80
2022-11-13T01:24:00.152Z,2.50
2022-11-13T01:26:55.185Z,2.60
2022-11-13T01:29:50.159Z,2.80
2022-11-13T01:32:44.668Z,3.20
2022-11-13T01:35:39.489Z,3.20
2022-11-13T01:38:36.591Z,3.50
2022-11-13T01:41:34.231Z,3.50
2022-11-13T01:44:29.039Z,5.10
2022-11-13T01:47:25.789Z,3.50
2022-11-13T01:50:24.044Z,3.40
2022-11-13T01:53:18.944Z,3.70
2022-11-13T01:56:15.419Z,2.90
2022-11-13T01:59:16.464Z,2.80
2022-11-13T02:02:11.411Z,4.90
2022-11-13T02:05:08.942Z,2.50
2022-11-13T02:08:04.427Z,4.20
2022-11-13T02:10:59.421Z,3.40
2022-11-13T02:13:54.877Z,2.70
2022-11-13T02:16:51.270Z,2.30
2022-11-13T02:19:51.822Z,3.60
2022-11-13T02:22:54.839Z,3.00
2022-11-13T02:25:53.601Z,2.40
2022-11-13T02:28:48.632Z,2.80
2022-11-13T02:31:43.215Z,2.00
2022-11-13T02:34:37.888Z,1.70
2022-11-13T02:37:32.782Z,2.10
2022-11-13T02:40:28.855Z,2.60
2022-11-13T02:43:23.904Z,2.10
2022-11-13T02:46:18.889Z,2.20
2022-11-13T02:49:13.831Z,5.80
2022-11-13T02:52:08.281Z,3.50
2022-11-13T02:55:02.961Z,5.10
2022-11-13T02:57:57.830Z,1.80
2022-11-13T03:00:52.767Z,3.00
2022-11-13T03:03:57.419Z,2.30
2022-11-13T03:06:52.667Z,1.60
2022-11-13T03:09:48.242Z,2.60
2022-11-13T03:12:43.163Z,3.60
2022-11-13T03:15:38.703Z,2.80
2022-11-13T03:18:33.549Z,3.60
2022-11-13T03:21:28.600Z,4.70
2022-11-13T03:24:23.202Z,3.00
2022-11-13T03:27:18.216Z,3.70
2022-11-13T03:30:18.280Z,4.20
2022-11-13T03:33:13.470Z,3.20
2022-11-13T03:36:07.543Z,4.70
2022-11-13T03:39:01.900Z,3.00
2022-11-13T03:41:56.615Z,5.50
2022-11-13T03:44:52.085Z,3.90
2022-11-13T03:47:47.251Z,3.60
2022-11-13T03:50:45.453Z,5.00
2022-11-13T03:53:40.993Z,2.90
2022-11-13T03:56:37.001Z,3.40
2022-11-13T03:59:32.098Z,5.80
2022-11-13T04:02:26.459Z,3.30
2022-11-13T04:05:22.916Z,3.20
2022-11-13T04:08:18.016Z,4.30
2022-11-13T04:11:17.330Z,3.00
2022-11-13T04:14:12.500Z,4.10
2022-11-13T04:17:07.272Z,4.20
2022-11-13T04:20:02.671Z,3.50
2022-11-13T04:22:58.068Z,4.30
2022-11-13T04:25:53.631Z,3.90
2022-11-13T04:28:47.780Z,4.90
2022-11-13T04:31:42.892Z,4.20
2022-11-13T04:34:37.742Z,3.70
2022-11-13T04:37:33.280Z,5.80
2022-11-13T04:40:27.146Z,4.70
2022-11-13T04:43:22.380Z,4.80
2022-11-13T04:46:17.710Z,4.30
2022-11-13T04:49:13.181Z,4.60
2022-11-13T04:52:08.808Z,4.80
2022-11-13T04:55:03.865Z,4.70
2022-11-13T04:58:00.112Z,3.70
2022-11-13T05:00:54.770Z,3.90
2022-11-13T05:03:49.378Z,4.00
2022-11-13T05:06:44.941Z,4.40
2022-11-13T05:09:39.150Z,4.20
2022-11-13T05:12:37.029Z,4.70
2022-11-13T05:15:31.995Z,3.50
2022-11-13T05:18:30.336Z,4.10
2022-11-13T05:21:25.161Z,4.50
2022-11-13T05:24:20.408Z,4.50
2022-11-13T05:27:17.523Z,5.10
2022-11-13T05:30:17.953Z,4.80
2022-11-13T05:33:15.265Z,3.90
2022-11-13T05:36:14.281Z,4.70
2022-11-13T05:39:09.753Z,3.70
2022-11-13T05:42:04.616Z,4.50
2022-11-13T05:44:59.955Z,3.50
2022-11-13T05:47:54.720Z,3.30
2022-11-13T05:50:49.479Z,3.30
2022-11-13T05:53:44.546Z,4.60
2022-11-13T05:56:42.706Z,5.60
2022-11-13T05:59:37.231Z,4.50
2022-11-13T06:02:32.715Z,4.50
2022-11-13T06:05:26.946Z,4.40
2022-11-13T06:08:21.738Z,5.50
2022-11-13T06:11:21.537Z,5.00
2022-11-13T06:14:16.038Z,4.00
2022-11-13T06:17:10.759Z,4.50
2022-11-13T06:20:05.903Z,4.10
2022-11-13T06:23:00.414Z,3.70
2022-11-13T06:25:55.055Z,4.50
2022-11-13T06:28:49.961Z,4.60
2022-11-13T06:31:46.261Z,4.00
2022-11-13T06:34:40.693Z,5.20
2022-11-13T06:37:35.488Z,5.60
2022-11-13T06:40:29.879Z,4.10
2022-11-13T06:43:25.859Z,4.70
2022-11-13T06:46:22.474Z,3.70
2022-11-13T06:49:17.932Z,4.90
2022-11-13T06:52:13.665Z,4.10
2022-11-13T06:55:10.654Z,6.40
2022-11-13T06:58:05.166Z,4.00
2022-11-13T07:00:59.616Z,4.70
2022-11-13T07:03:54.158Z,3.90
2022-11-13T07:06:49.127Z,4.30
2022-11-13T07:09:44.710Z,4.20
2022-11-13T07:12:39.700Z,5.30
2022-11-13T07:15:35.553Z,4.60
2022-11-13T07:18:31.189Z,3.60
2022-11-13T07:21:26.536Z,6.10
2022-11-13T07:24:22.001Z,4.60
2022-11-13T07:27:16.358Z,4.50
2022-11-13T07:30:17.240Z,3.50
2022-11-13T07:33:12.833Z,4.20
2022-11-13T07:36:09.994Z,4.80
2022-11-13T07:39:06.666Z,3.90
2022-11-13T07:42:01.631Z,4.40
2022-11-13T07:44:55.874Z,8.20
2022-11-13T07:47:50.433Z,3.70
2022-11-13T07:50:45.560Z,4.40
2022-11-13T07:53:40.099Z,4.50
2022-11-13T07:56:34.950Z,3.90
2022-11-13T07:59:29.876Z,5.70
2022-11-13T08:02:26.685Z,4.30
2022-11-13T08:05:21.724Z,5.20
2022-11-13T08:08:19.819Z,6.10
2022-11-13T08:11:15.975Z,4.20
2022-11-13T08:14:11.491Z,4.40
2022-11-13T08:17:07.666Z,5.50
2022-11-13T08:20:01.833Z,5.30
2022-11-13T08:22:58.895Z,3.70
2022-11-13T08:25:53.452Z,4.50
2022-11-13T08:28:50.211Z,5.40
2022-11-13T08:31:45.078Z,6.40
2022-11-13T08:34:40.158Z,6.60
2022-11-13T08:37:35.641Z,5.90
2022-11-13T08:40:31.103Z,4.60
2022-11-13T08:43:26.390Z,3.50
2022-11-13T08:46:21.085Z,4.50
2022-11-13T08:49:16.403Z,4.50
2022-11-13T08:52:12.424Z,5.10
2022-11-13T08:55:07.382Z,5.30
2022-11-13T08:58:06.420Z,3.80
2022-11-13T09:01:05.965Z,6.60
2022-11-13T09:04:01.295Z,4.40
2022-11-13T09:06:56.691Z,5.50
2022-11-13T09:09:52.273Z,4.40
2022-11-13T09:12:47.687Z,5.40
2022-11-13T09:15:45.609Z,5.60
2022-11-13T09:18:40.913Z,6.50
2022-11-13T09:21:36.087Z,5.00
2022-11-13T09:24:31.483Z,3.80
2022-11-13T09:27:27.082Z,3.60
2022-11-13T09:30:26.127Z,5.20
2022-11-13T09:33:21.077Z,4.60
2022-11-13T09:36:20.682Z,6.40
2022-11-13T09:39:16.988Z,5.00
2022-11-13T09:42:23.341Z,5.60
2022-11-13T09:45:22.385Z,6.60
2022-11-13T09:48:31.976Z,7.10
2022-11-13T09:51:30.266Z,7.80
2022-11-13T09:54:24.590Z,5.10
2022-11-13T09:57:48.680Z,6.70
2022-11-13T10:00:44.556Z,4.40
2022-11-13T10:04:01.362Z,5.40
2022-11-13T10:07:11.001Z,6.80
2022-11-13T10:10:28.479Z,5.40
2022-11-13T10:13:29.492Z,6.30
2022-11-13T10:16:35.136Z,5.10
2022-11-13T10:19:38.718Z,5.20
2022-11-13T10:22:43.940Z,4.90
2022-11-13T10:25:41.722Z,6.00
2022-11-13T10:28:49.929Z,5.70
2022-11-13T10:32:17.765Z,6.60
2022-11-13T10:35:36.715Z,5.90
2022-11-13T10:38:43.249Z,5.40
2022-11-13T10:41:51.418Z,6.40
2022-11-13T10:44:55.431Z,7.00
2022-11-13T10:48:04.278Z,5.90
2022-11-13T10:51:05.956Z,5.30
2022-11-13T10:54:04.794Z,5.00
2022-11-13T10:57:07.349Z,6.20
2022-11-13T11:00:02.749Z,6.50
2022-11-13T11:02:57.992Z,7.70
2022-11-13T11:06:14.610Z,5.80
2022-11-13T11:09:33.000Z,5.80
2022-11-13T11:12:31.116Z,6.60
2022-11-13T11:15:39.907Z,5.40
2022-11-13T11:18:40.330Z,5.20
2022-11-13T11:21:40.269Z,4.90
2022-11-13T11:24:42.625Z,7.10
2022-11-13T11:27:45.025Z,7.80
2022-11-13T11:30:46.489Z,6.90
2022-11-13T11:33:52.969Z,7.20
2022-11-13T11:37:01.849Z,6.90
2022-11-13T11:40:02.164Z,7.30
2022-11-13T11:43:08.392Z,7.60
2022-11-13T11:46:03.442Z,6.90
2022-11-13T11:49:04.268Z,7.60
2022-11-13T11:52:15.123Z,7.50
2022-11-13T11:55:30.999Z,8.60
2022-11-13T11:58:54.187Z,8.60
2022-11-13T12:02:37.067Z,6.80
2022-11-13T12:05:39.718Z,7.30
2022-11-13T12:08:48.814Z,8.10
2022-11-13T12:11:55.491Z,7.60
2022-11-13T12:15:04.733Z,8.00
2022-11-13T12:18:17.397Z,7.10
2022-11-13T12:21:28.342Z,8.10
2022-11-13T12:24:56.500Z,7.30
2022-11-13T12:28:02.376Z,6.90
2022-11-13T12:31:21.681Z,7.50
2022-11-13T12:34:28.812Z,7.90
2022-11-13T12:37:33.704Z,8.90
2022-11-13T12:40:44.670Z,8.50
2022-11-13T12:44:21.316Z,9.20
2022-11-13T12:47:17.986Z,8.50
2022-11-13T12:50:32.444Z,8.70
2022-11-13T12:53:45.831Z,7.60
2022-11-13T12:56:42.235Z,7.60
2022-11-13T12:59:43.449Z,9.10
2022-11-13T13:03:11.246Z,8.80
2022-11-13T13:06:40.316Z,9.20
2022-11-13T13:09:58.600Z,10.60
2022-11-13T13:13:02.309Z,9.90
2022-11-13T13:16:06.038Z,7.80
2022-11-13T13:19:11.052Z,9.60
2022-11-13T13:22:06.611Z,8.10
2022-11-13T13:25:25.148Z,10.20
2022-11-13T13:28:27.435Z,8.50
2022-11-13T13:31:47.191Z,11.60
2022-11-13T13:35:02.266Z,7.70
2022-11-13T13:38:03.698Z,9.40
2022-11-13T13:41:25.531Z,7.40
2022-11-13T13:44:43.961Z,9.10
2022-11-13T13:47:42.349Z,9.20
2022-11-13T13:50:46.639Z,10.20
2022-11-13T13:53:45.341Z,8.00
2022-11-13T13:56:46.229Z,8.70
2022-11-13T13:59:44.891Z,10.90
2022-11-13T14:02:50.661Z,8.80
2022-11-13T14:05:46.113Z,11.40
2022-11-13T14:08:41.051Z,8.60
2022-11-13T14:11:36.589Z,8.60
2022-11-13T14:14:32.648Z,8.70
2022-11-13T14:17:32.299Z,8.80
2022-11-13T14:20:28.548Z,9.90
2022-11-13T14:23:31.748Z,8.10
2022-11-13T14:26:28.255Z,10.10
2022-11-13T14:29:38.526Z,9.10
2022-11-13T14:32:46.748Z,10.60
2022-11-13T14:35:53.497Z,9.50
2022-11-13T14:38:52.310Z,8.40
2022-11-13T14:41:59.041Z,8.80
2022-11-13T14:44:53.766Z,8.60
2022-11-13T14:47:58.648Z,9.30
2022-11-13T14:51:00.510Z,15.10
2022-11-13T14:54:08.697Z,12.40
2022-11-13T14:57:15.222Z,9.90
2022-11-13T15:00:23.231Z,11.50
2022-11-13T15:03:18.884Z,11.90
2022-11-13T15:06:20.719Z,12.80
2022-11-13T15:09:21.179Z,10.50
2022-11-13T15:12:18.679Z,11.10
2022-11-13T15:15:24.918Z,11.00
2022-11-13T15:18:23.341Z,12.20
2022-11-13T15:21:18.565Z,10.10
2022-11-13T15:24:16.175Z,10.90
2022-11-13T15:27:13.093Z,10.10
2022-11-13T15:30:11.848Z,12.70
2022-11-13T15:33:08.716Z,12.40
2022-11-13T15:36:03.760Z,13.40
2022-11-13T15:39:03.467Z,16.60
2022-11-13T15:42:00.757Z,12.70
2022-11-13T15:44:56.225Z,14.00
2022-11-13T15:47:51.212Z,14.20
2022-11-13T15:50:47.097Z,14.30
2022-11-13T15:53:42.661Z,11.70
2022-11-13T15:56:38.204Z,9.90
2022-11-13T15:59:33.288Z,14.20
2022-11-13T16:02:28.007Z,15.90
2022-11-13T16:05:24.017Z,10.20
2022-11-13T16:08:21.833Z,14.80
2022-11-13T16:11:19.769Z,15.60
2022-11-13T16:14:15.134Z,13.80
2022-11-13T16:17:16.629Z,14.60
2022-11-13T16:20:17.031Z,16.80
2022-11-13T16:23:17.161Z,13.60
2022-11-13T16:26:16.886Z,15.40
2022-11-13T16:29:23.055Z,26.40
2022-11-13T16:32:22.055Z,23.10
2022-11-13T16:35:20.580Z,18.10
2022-11-13T16:38:19.891Z,17.40
2022-11-13T16:41:17.650Z,19.40
2022-11-13T16:44:20.838Z,17.90
2022-11-13T16:47:28.409Z,18.20
2022-11-13T16:50:26.883Z,15.40
2022-11-13T16:53:21.686Z,14.00
2022-11-13T16:56:24.851Z,14.60
2022-11-13T16:59:21.078Z,16.30
2022-11-13T17:02:21.285Z,18.50
2022-11-13T17:05:20.091Z,15.00
2022-11-13T17:08:16.884Z,15.80
2022-11-13T17:11:15.584Z,16.60
2022-11-13T17:14:12.653Z,18.50
2022-11-13T17:17:08.055Z,17.20
2022-11-13T17:20:03.536Z,11.30
2022-11-13T17:22:58.172Z,12.70
2022-11-13T17:25:52.721Z,12.10
2022-11-13T17:28:47.533Z,12.30
2022-11-13T17:31:42.846Z,13.50
2022-11-13T17:34:37.541Z,14.00
2022-11-13T17:37:32.791Z,13.20
2022-11-13T17:40:28.747Z,13.20
2022-11-13T17:43:24.166Z,13.20
2022-11-13T17:46:21.865Z,12.50
2022-11-13T17:49:16.381Z,15.90
2022-11-13T17:52:12.107Z,17.70
2022-11-13T17:55:10.990Z,15.60
2022-11-13T17:58:08.129Z,17.20
2022-11-13T18:01:13.343Z,15.90
2022-11-13T18:04:08.221Z,23.40
2022-11-13T18:07:04.102Z,16.40
2022-11-13T18:09:59.502Z,19.80
2022-11-13T18:12:54.606Z,23.10
2022-11-13T18:15:50.585Z,18.70
2022-11-13T18:18:45.706Z,20.20
2022-11-13T18:21:41.993Z,21.30
2022-11-13T18:24:36.820Z,17.20
2022-11-13T18:27:31.873Z,24.50
2022-11-13T18:30:28.529Z,17.30
2022-11-13T18:33:24.101Z,15.90
2022-11-13T18:36:20.040Z,19.20
2022-11-13T18:39:16.947Z,17.00
2022-11-13T18:42:12.267Z,17.70
2022-11-13T18:45:07.999Z,14.80
2022-11-13T18:48:02.459Z,14.90
2022-11-13T18:51:06.216Z,16.00
2022-11-13T18:54:05.449Z,16.90
2022-11-13T18:57:07.324Z,14.50
2022-11-13T19:00:02.327Z,14.90
2022-11-13T19:02:59.066Z,16.00
2022-11-13T19:05:54.513Z,15.10
2022-11-13T19:08:50.502Z,13.40
2022-11-13T19:11:45.687Z,15.10
2022-11-13T19:14:40.622Z,19.60
2022-11-13T19:17:35.372Z,16.90
2022-11-13T19:20:30.565Z,17.70
2022-11-13T19:23:25.926Z,16.50
2022-11-13T19:26:22.582Z,19.90
2022-11-13T19:29:17.948Z,17.50
2022-11-13T19:32:14.038Z,17.10
2022-11-13T19:35:11.617Z,11.50
2022-11-13T19:38:06.955Z,13.70
2022-11-13T19:41:02.655Z,15.30
2022-11-13T19:43:59.351Z,14.90
2022-11-13T19:46:54.782Z,14.60
2022-11-13T19:49:49.783Z,14.10
2022-11-13T19:52:44.575Z,12.50
2022-11-13T19:55:39.715Z,15.00
2022-11-13T19:58:36.375Z,13.10
2022-11-13T20:01:33.080Z,20.10
2022-11-13T20:04:29.136Z,19.80
2022-11-13T20:07:24.708Z,16.80
2022-11-13T20:10:21.549Z,18.10
2022-11-13T20:13:16.804Z,17.80
2022-11-13T20:16:14.118Z,17.00
2022-11-13T20:19:09.666Z,14.50
2022-11-13T20:22:04.842Z,16.00
2022-11-13T20:25:00.599Z,19.10
2022-11-13T20:27:55.994Z,16.40
2022-11-13T20:30:50.373Z,17.30
2022-11-13T20:33:46.214Z,16.20
2022-11-13T20:36:41.466Z,14.20
2022-11-13T20:39:36.492Z,17.30
2022-11-13T20:42:35.195Z,17.60
2022-11-13T20:45:30.517Z,15.70
2022-11-13T20:48:25.359Z,15.00
2022-11-13T20:51:22.557Z,18.00
2022-11-13T20:54:18.700Z,17.20
2022-11-13T20:57:13.953Z,15.90
2022-11-13T21:00:12.688Z,19.00
2022-11-13T21:03:07.779Z,20.10
2022-11-13T21:06:03.029Z,23.00
2022-11-13T21:08:56.996Z,15.10
2022-11-13T21:11:51.984Z,14.60
2022-11-13T21:14:46.979Z,13.80
2022-11-13T21:17:42.045Z,15.20
2022-11-13T21:20:38.087Z,14.60
2022-11-13T21:23:34.298Z,15.30
2022-11-13T21:26:29.647Z,12.30
2022-11-13T21:29:25.345Z,12.70
2022-11-13T21:32:20.602Z,15.50
2022-11-13T21:35:22.412Z,12.70
2022-11-13T21:38:18.117Z,12.80
2022-11-13T21:41:29.600Z,14.90
2022-11-13T21:44:24.547Z,15.40
2022-11-13T21:47:19.018Z,13.70
2022-11-13T21:50:17.049Z,15.70
2022-11-13T21:53:11.823Z,14.50
2022-11-13T21:56:11.271Z,12.70
2022-11-13T21:59:10.068Z,16.30
2022-11-13T22:02:06.172Z,16.30
2022-11-13T22:05:00.907Z,14.80
2022-11-13T22:07:55.604Z,17.30
2022-11-13T22:10:51.178Z,15.60
2022-11-13T22:13:46.627Z,15.50
2022-11-13T22:16:44.157Z,15.70
2022-11-13T22:19:39.327Z,14.00
2022-11-13T22:22:35.975Z,17.00
2022-11-13T22:25:31.241Z,16.00
2022-11-13T22:28:26.791Z,17.40
2022-11-13T22:31:29.251Z,14.70
2022-11-13T22:34:24.654Z,13.20
2022-11-13T22:37:19.606Z,15.60
2022-11-13T22:40:18.513Z,15.60
2022-11-13T22:43:13.861Z,14.60
2022-11-13T22:46:13.172Z,12.90
2022-11-13T22:49:09.625Z,13.60
2022-11-13T22:52:04.744Z,12.90
2022-11-13T22:57:54.393Z,13.90
2022-11-13T23:00:50.029Z,13.80
2022-11-13T23:03:48.243Z,12.80
2022-11-13T23:06:44.067Z,13.40
2022-11-13T23:09:39.646Z,12.50
2022-11-13T23:12:34.490Z,14.00
2022-11-13T23:15:30.143Z,13.50
2022-11-13T23:18:25.609Z,13.00
2022-11-13T23:21:20.060Z,13.80
2022-11-13T23:24:19.482Z,12.60
2022-11-13T23:27:14.117Z,13.80
2022-11-13T23:30:13.362Z,12.20
2022-11-13T23:33:08.208Z,11.60
2022-11-13T23:36:02.661Z,11.00
2022-11-13T23:38:57.620Z,9.50
2022-11-13T23:41:53.115Z,12.20
2022-11-13T23:44:48.529Z,12.60
2022-11-13T23:47:44.830Z,12.40
2022-11-13T23:50:41.390Z,11.70
2022-11-13T23:53:38.147Z,10.20
2022-11-13T23:56:34.019Z,11.70
2022-11-13T23:59:29.436Z,11.00
